createdAt,value
2018-01-20T00:02:15.439Z,97177.41
2018-01-20T00:04:46.510Z,97173.55
2018-01-20T00:07:17.573Z,97179.09
2018-01-20T00:10:01.069Z,97183.23
2018-01-20T00:12:32.177Z,97186.15
2018-01-20T00:15:03.348Z,97188.05
2018-01-20T00:17:34.705Z,97194.27
2018-01-20T00:20:05.768Z,97188.00
2018-01-20T00:22:36.864Z,97186.37
2018-01-20T00:25:07.908Z,97192.06
2018-01-20T00:27:40.027Z,97192.42
2018-01-20T00:30:11.117Z,97198.56
2018-01-20T00:32:42.211Z,97194.16
2018-01-20T00:35:13.296Z,97190.77
2018-01-20T00:37:44.395Z,97191.48
2018-01-20T00:40:15.441Z,97194.44
2018-01-20T00:42:46.544Z,97208.33
2018-01-20T00:45:17.628Z,97210.54
2018-01-20T00:47:48.759Z,97207.23
2018-01-20T00:50:19.788Z,97210.25
2018-01-20T00:52:50.846Z,97204.58
2018-01-20T00:55:21.952Z,97207.00
2018-01-20T00:57:53.007Z,97207.41
2018-01-20T01:00:24.072Z,97207.89
2018-01-20T01:02:55.120Z,97207.81
2018-01-20T01:05:26.241Z,97207.09
2018-01-20T01:07:57.323Z,97213.98
2018-01-20T01:10:28.450Z,97215.64
2018-01-20T01:12:59.667Z,97211.16
2018-01-20T01:15:30.784Z,97213.81
2018-01-20T01:18:01.842Z,97221.23
2018-01-20T01:20:32.957Z,97223.61
2018-01-20T01:23:04.043Z,97219.64
2018-01-20T01:25:35.184Z,97224.20
2018-01-20T01:28:06.278Z,97225.20
2018-01-20T01:30:37.384Z,97222.03
2018-01-20T01:33:08.481Z,97228.20
2018-01-20T01:35:39.555Z,97224.96
2018-01-20T01:38:10.612Z,97228.67
2018-01-20T01:40:41.676Z,97238.95
2018-01-20T01:43:12.804Z,97236.85
2018-01-20T01:45:43.841Z,97245.26
2018-01-20T01:48:14.955Z,97243.75
2018-01-20T01:50:46.123Z,97244.52
2018-01-20T01:53:17.182Z,97234.83
2018-01-20T01:55:48.559Z,97235.62
2018-01-20T01:58:19.810Z,97231.65
2018-01-20T02:00:50.897Z,97234.62
2018-01-20T02:03:21.988Z,97229.60
2018-01-20T02:05:53.129Z,97224.55
2018-01-20T02:08:24.238Z,97222.59
2018-01-20T02:10:55.371Z,97224.71
2018-01-20T02:13:26.441Z,97223.94
2018-01-20T02:15:57.547Z,97224.22
2018-01-20T02:18:28.638Z,97220.77
2018-01-20T02:20:59.909Z,97217.08
2018-01-20T02:23:31.004Z,97216.89
2018-01-20T02:26:02.071Z,97215.99
2018-01-20T02:28:33.139Z,97210.76
2018-01-20T02:31:04.183Z,97208.25
2018-01-20T02:33:35.313Z,97216.12
2018-01-20T02:36:06.402Z,97211.35
2018-01-20T02:38:37.489Z,97219.64
2018-01-20T02:41:08.578Z,97217.05
2018-01-20T02:43:39.671Z,97211.35
2018-01-20T02:46:10.752Z,97205.64
2018-01-20T02:48:41.853Z,97210.81
2018-01-20T02:51:12.885Z,97207.28
2018-01-20T02:53:43.977Z,97208.37
2018-01-20T02:56:15.046Z,97196.50
2018-01-20T02:58:46.130Z,97201.78
2018-01-20T03:01:17.826Z,97191.88
2018-01-20T03:03:48.893Z,97192.67
2018-01-20T03:06:19.976Z,97196.87
2018-01-20T03:08:51.189Z,97198.48
2018-01-20T03:11:22.264Z,97191.94
2018-01-20T03:13:56.405Z,97189.27
2018-01-20T03:16:27.458Z,97181.33
2018-01-20T03:18:58.599Z,97175.58
2018-01-20T03:21:31.055Z,97175.23
2018-01-20T03:24:02.144Z,97176.09
2018-01-20T03:26:34.156Z,97165.48
2018-01-20T03:29:05.247Z,97162.52
2018-01-20T03:31:36.301Z,97164.58
2018-01-20T03:34:07.399Z,97160.97
2018-01-20T03:36:38.484Z,97164.23
2018-01-20T03:39:10.697Z,97160.56
2018-01-20T03:41:41.763Z,97163.92
2018-01-20T03:44:12.865Z,97170.23
2018-01-20T03:46:43.926Z,97166.28
2018-01-20T03:49:15.016Z,97171.66
2018-01-20T03:51:46.072Z,97164.68
2018-01-20T03:54:17.199Z,97164.03
2018-01-20T03:56:48.278Z,97160.92
2018-01-20T03:59:19.371Z,97164.53
2018-01-20T04:01:50.457Z,97156.36
2018-01-20T04:04:21.536Z,97153.05
2018-01-20T04:06:52.587Z,97154.15
2018-01-20T04:09:23.625Z,97151.28
2018-01-20T04:11:54.696Z,97148.00
2018-01-20T04:14:25.775Z,97148.84
2018-01-20T04:16:56.843Z,97145.59
2018-01-20T04:19:27.921Z,97141.21
2018-01-20T04:21:58.981Z,97142.20
2018-01-20T04:24:30.026Z,97136.34
2018-01-20T04:27:01.086Z,97132.94
2018-01-20T04:29:32.153Z,97133.34
2018-01-20T04:32:03.246Z,97133.93
2018-01-20T04:34:34.313Z,97138.64
2018-01-20T04:37:05.374Z,97135.63
2018-01-20T04:39:36.440Z,97134.63
2018-01-20T04:42:07.503Z,97132.11
2018-01-20T04:44:38.602Z,97124.79
2018-01-20T04:47:09.670Z,97124.84
2018-01-20T04:49:40.733Z,97120.35
2018-01-20T04:52:11.868Z,97114.55
2018-01-20T04:54:42.929Z,97103.81
2018-01-20T04:57:14.060Z,97114.00
2018-01-20T04:59:45.128Z,97102.95
2018-01-20T05:02:16.201Z,97099.31
2018-01-20T05:04:47.295Z,97099.63
2018-01-20T05:07:18.341Z,97095.08
2018-01-20T05:09:49.443Z,97090.77
2018-01-20T05:12:20.522Z,97080.87
2018-01-20T05:14:51.621Z,97085.55
2018-01-20T05:17:22.700Z,97073.66
2018-01-20T05:19:53.757Z,97080.86
2018-01-20T05:22:24.813Z,97076.15
2018-01-20T05:24:55.893Z,97075.14
2018-01-20T05:27:26.968Z,97074.05
2018-01-20T05:29:58.015Z,97069.95
2018-01-20T05:32:29.070Z,97073.52
2018-01-20T05:35:00.159Z,97071.01
2018-01-20T05:37:31.230Z,97061.78
2018-01-20T05:40:02.312Z,97052.88
2018-01-20T05:42:33.332Z,97047.11
2018-01-20T05:45:04.407Z,97039.62
2018-01-20T05:47:35.480Z,97032.61
2018-01-20T05:50:06.546Z,97033.22
2018-01-20T05:52:37.615Z,97028.16
2018-01-20T05:55:08.687Z,97028.64
2018-01-20T05:57:39.751Z,97031.55
2018-01-20T06:00:10.833Z,97027.08
2018-01-20T06:02:41.929Z,97021.39
2018-01-20T06:05:12.965Z,97025.84
2018-01-20T06:07:44.213Z,97028.35
2018-01-20T06:10:15.290Z,97017.00
2018-01-20T06:12:46.306Z,97016.59
2018-01-20T06:15:17.396Z,97030.14
2018-01-20T06:17:48.459Z,97019.92
2018-01-20T06:20:19.509Z,97014.83
2018-01-20T06:22:50.538Z,97019.38
2018-01-20T06:25:21.623Z,97017.52
2018-01-20T06:27:52.684Z,97024.02
2018-01-20T06:30:23.767Z,97014.41
2018-01-20T06:32:54.848Z,97015.53
2018-01-20T06:35:25.969Z,97018.56
2018-01-20T06:37:57.090Z,97021.59
2018-01-20T06:40:28.233Z,97021.36
2018-01-20T06:42:59.459Z,97029.04
2018-01-20T06:45:30.582Z,97027.58
2018-01-20T06:48:01.622Z,97026.45
2018-01-20T06:50:32.692Z,97038.80
2018-01-20T06:53:03.760Z,97040.28
2018-01-20T06:55:34.831Z,97037.33
2018-01-20T06:58:05.889Z,97042.14
2018-01-20T07:00:37.023Z,97043.25
2018-01-20T07:03:08.102Z,97052.83
2018-01-20T07:05:39.219Z,97051.98
2018-01-20T07:08:10.270Z,97041.19
2018-01-20T07:10:41.412Z,97050.22
2018-01-20T07:13:12.501Z,97055.34
2018-01-20T07:15:43.598Z,97057.36
2018-01-20T07:18:14.702Z,97055.59
2018-01-20T07:20:45.803Z,97051.31
2018-01-20T07:23:16.883Z,97048.14
2018-01-20T07:25:47.960Z,97050.16
2018-01-20T07:28:19.073Z,97049.38
2018-01-20T07:30:50.195Z,97052.86
2018-01-20T07:33:21.383Z,97044.94
2018-01-20T07:35:52.526Z,97040.34
2018-01-20T07:38:23.692Z,97046.05
2018-01-20T07:40:54.767Z,97041.70
2018-01-20T07:43:25.887Z,97041.84
2018-01-20T07:45:56.971Z,97039.01
2018-01-20T07:48:28.112Z,97034.28
2018-01-20T07:50:59.171Z,97038.11
2018-01-20T07:53:30.464Z,97037.41
2018-01-20T07:56:01.518Z,97034.98
2018-01-20T07:58:32.664Z,97032.62
2018-01-20T08:01:03.816Z,97025.95
2018-01-20T08:03:34.888Z,97031.64
2018-01-20T08:06:06.018Z,97033.03
2018-01-20T08:08:41.685Z,97037.95
2018-01-20T08:11:12.783Z,97042.87
2018-01-20T08:13:43.834Z,97049.97
2018-01-20T08:16:15.085Z,97046.93
2018-01-20T08:18:46.152Z,97053.36
2018-01-20T08:21:17.257Z,97058.19
2018-01-20T08:23:48.370Z,97056.87
2018-01-20T08:26:19.543Z,97060.97
2018-01-20T08:28:50.617Z,97055.03
2018-01-20T08:31:21.707Z,97055.14
2018-01-20T08:33:52.780Z,97043.89
2018-01-20T08:36:23.882Z,97040.51
2018-01-20T08:38:54.984Z,97043.66
2018-01-20T08:41:26.058Z,97036.17
2018-01-20T08:43:57.179Z,97041.56
2018-01-20T08:46:28.272Z,97036.89
2018-01-20T08:48:59.410Z,97037.13
2018-01-20T08:51:30.464Z,97036.33
2018-01-20T08:54:01.783Z,97038.75
2018-01-20T08:56:32.830Z,97034.61
2018-01-20T08:59:03.952Z,97040.94
2018-01-20T09:01:35.071Z,97026.30
2018-01-20T09:04:06.201Z,97028.91
2018-01-20T09:06:37.341Z,97023.44
2018-01-20T09:09:08.404Z,97030.18
2018-01-20T09:11:39.475Z,97035.11
2018-01-20T09:14:10.564Z,97033.93
2018-01-20T09:16:41.652Z,97025.27
2018-01-20T09:19:12.707Z,97030.98
2018-01-20T09:21:43.787Z,97028.67
2018-01-20T09:24:14.899Z,97023.07
2018-01-20T09:26:45.996Z,97027.05
2018-01-20T09:29:17.044Z,97026.52
2018-01-20T09:31:48.165Z,97028.33
2018-01-20T09:34:19.245Z,97023.83
2018-01-20T09:36:50.356Z,97021.50
2018-01-20T09:39:21.442Z,97010.73
2018-01-20T09:41:52.537Z,97001.46
2018-01-20T09:44:24.325Z,96999.53
2018-01-20T09:46:55.442Z,96982.67
2018-01-20T09:49:26.515Z,96978.38
2018-01-20T09:51:57.617Z,96979.25
2018-01-20T09:54:28.730Z,96985.23
2018-01-20T09:56:59.792Z,96984.72
2018-01-20T09:59:30.884Z,96976.17
2018-01-20T10:02:02.000Z,96966.08
2018-01-20T10:04:33.068Z,96973.30
2018-01-20T10:07:04.173Z,96970.98
2018-01-20T10:09:35.245Z,96974.11
2018-01-20T10:12:06.295Z,96969.98
2018-01-20T10:14:37.327Z,96969.92
2018-01-20T10:17:08.452Z,96955.36
2018-01-20T10:19:39.522Z,96944.14
2018-01-20T10:22:10.581Z,96949.58
2018-01-20T10:24:41.634Z,96950.72
2018-01-20T10:27:12.703Z,96955.86
2018-01-20T10:29:43.804Z,96945.01
2018-01-20T10:32:14.858Z,96946.17
2018-01-20T10:34:45.936Z,96939.50
2018-01-20T10:37:16.954Z,96941.71
2018-01-20T10:39:48.018Z,96928.97
2018-01-20T10:42:19.174Z,96925.95
2018-01-20T10:44:50.224Z,96928.63
2018-01-20T10:47:21.325Z,96921.52
2018-01-20T10:49:52.413Z,96924.44
2018-01-20T10:52:23.582Z,96915.24
2018-01-20T10:54:54.650Z,96904.33
2018-01-20T10:57:25.755Z,96901.56
2018-01-20T10:59:56.822Z,96895.52
2018-01-20T11:02:27.900Z,96885.84
2018-01-20T11:04:58.939Z,96888.17
2018-01-20T11:07:30.215Z,96881.91
2018-01-20T11:10:01.496Z,96882.16
2018-01-20T11:12:32.566Z,96877.13
2018-01-20T11:15:03.620Z,96875.17
2018-01-20T11:17:34.671Z,96870.24
2018-01-20T11:20:05.746Z,96863.52
2018-01-20T11:22:36.845Z,96860.95
2018-01-20T11:25:07.935Z,96862.48
2018-01-20T11:27:39.189Z,96854.08
2018-01-20T11:30:10.268Z,96845.75
2018-01-20T11:32:41.362Z,96833.68
